KSEA/SEA METAR and TAF weather

Enter ICAO airport designator
Station Type Date Time Source
KSEA METAR 2019/06/18 13:04 UTC NOAA

KSEA 181304Z 21004KT 1SM R16L/P6000FT -DZ BR BKN004 OVC012 13/12 A3019 RMK AO2 TWR VIS 2 P0000 T01330122


Station Type Date Time Source
KSEA Decoded METAR 2019/06/18 13:04 UTC NOAA

SEATTLE-TACOMA INTERNATIONAL AIRPORT , WA, United States (KSEA) 47-27N 122-19W 136M
Jun 18, 2019 - 09:04 AM EDT / 2019.06.18 1304 UTC
Wind: from the SSW (210 degrees) at 5 MPH (4 KT):0
Visibility: 1 mile(s):0
Sky conditions: overcast
Weather: light drizzle; mist
Precipitation last hour: A trace
Temperature: 55.9 F (13.3 C)
Dew Point: 54.0 F (12.2 C)
Relative Humidity: 93%
Pressure (altimeter): 30.19 in. Hg (1022 hPa)
ob: KSEA 181304Z 21004KT 1SM R16L/P6000FT -DZ BR BKN004 OVC012 13/12 A3019 RMK AO2 TWR VIS 2 P0000 T01330122
cycle: 13

Station Type Date Time Source
KSEA TAF 2019/06/18 13:12 UTC NOAA

TAF
AMD KSEA 181310Z 1813/1918 22006KT 1SM -DZ BR BKN004 OVC008
FM181700 22006KT 3SM -DZ BR SCT004 BKN008 OVC012
FM181900 22006KT P6SM SCT008 OVC012
FM182000 24006KT P6SM SCT015 BKN025
FM182200 25006KT P6SM SCT025 BKN035 BKN050
FM190900 19012KT P6SM OVC022

Example: see airport list